sensor_id;sensor_type;location;lat;lon;timestamp;temperature;humidity
3312;DHT22;1668;49.648;8.570;2023-11-19T00:01:24;7.70;99.90
3312;DHT22;1668;49.648;8.570;2023-11-19T00:03:51;7.70;99.90
3312;DHT22;1668;49.648;8.570;2023-11-19T00:06:20;7.70;99.90
3312;DHT22;1668;49.648;8.570;2023-11-19T00:08:47;7.70;99.90
3312;DHT22;1668;49.648;8.570;2023-11-19T00:11:14;7.70;99.90
3312;DHT22;1668;49.648;8.570;2023-11-19T00:13:41;7.70;99.90
3312;DHT22;1668;49.648;8.570;2023-11-19T00:16:08;7.70;99.90
3312;DHT22;1668;49.648;8.570;2023-11-19T00:18:36;7.70;99.90
3312;DHT22;1668;49.648;8.570;2023-11-19T00:21:03;7.70;99.90
3312;DHT22;1668;49.648;8.570;2023-11-19T00:23:31;7.70;99.90
3312;DHT22;1668;49.648;8.570;2023-11-19T00:25:58;7.70;99.90
3312;DHT22;1668;49.648;8.570;2023-11-19T00:28:24;7.70;99.90
3312;DHT22;1668;49.648;8.570;2023-11-19T00:30:51;7.70;99.90
3312;DHT22;1668;49.648;8.570;2023-11-19T00:33:18;7.70;99.90
3312;DHT22;1668;49.648;8.570;2023-11-19T00:35:45;7.80;99.90
3312;DHT22;1668;49.648;8.570;2023-11-19T00:38:12;7.80;99.90
3312;DHT22;1668;49.648;8.570;2023-11-19T00:40:40;7.80;99.90
3312;DHT22;1668;49.648;8.570;2023-11-19T00:43:07;7.80;99.90
3312;DHT22;1668;49.648;8.570;2023-11-19T00:45:34;7.80;99.90
3312;DHT22;1668;49.648;8.570;2023-11-19T00:48:01;7.90;99.90
3312;DHT22;1668;49.648;8.570;2023-11-19T00:50:28;7.80;99.90
3312;DHT22;1668;49.648;8.570;2023-11-19T00:52:56;7.80;99.90
3312;DHT22;1668;49.648;8.570;2023-11-19T00:55:23;7.90;99.90
3312;DHT22;1668;49.648;8.570;2023-11-19T00:57:51;7.90;99.90
3312;DHT22;1668;49.648;8.570;2023-11-19T01:00:18;7.90;99.90
3312;DHT22;1668;49.648;8.570;2023-11-19T01:02:46;7.90;99.90
3312;DHT22;1668;49.648;8.570;2023-11-19T01:05:15;7.90;99.90
3312;DHT22;1668;49.648;8.570;2023-11-19T01:07:43;8.00;99.90
3312;DHT22;1668;49.648;8.570;2023-11-19T01:10:10;8.00;99.90
3312;DHT22;1668;49.648;8.570;2023-11-19T01:12:37;8.00;99.90
3312;DHT22;1668;49.648;8.570;2023-11-19T01:15:06;8.00;99.90
3312;DHT22;1668;49.648;8.570;2023-11-19T01:17:33;8.00;99.90
3312;DHT22;1668;49.648;8.570;2023-11-19T01:20:00;8.00;99.90
3312;DHT22;1668;49.648;8.570;2023-11-19T01:22:27;8.00;99.90
3312;DHT22;1668;49.648;8.570;2023-11-19T01:24:54;8.00;99.90
3312;DHT22;1668;49.648;8.570;2023-11-19T01:27:21;8.00;99.90
3312;DHT22;1668;49.648;8.570;2023-11-19T01:29:48;8.10;99.90
3312;DHT22;1668;49.648;8.570;2023-11-19T01:32:16;8.00;99.90
3312;DHT22;1668;49.648;8.570;2023-11-19T01:34:43;8.10;99.90
3312;DHT22;1668;49.648;8.570;2023-11-19T01:37:10;8.10;99.90
3312;DHT22;1668;49.648;8.570;2023-11-19T01:39:38;8.10;99.90
3312;DHT22;1668;49.648;8.570;2023-11-19T01:42:05;8.20;99.90
3312;DHT22;1668;49.648;8.570;2023-11-19T01:44:32;8.20;99.90
3312;DHT22;1668;49.648;8.570;2023-11-19T01:46:59;8.20;99.90
3312;DHT22;1668;49.648;8.570;2023-11-19T01:49:28;8.20;99.90
3312;DHT22;1668;49.648;8.570;2023-11-19T01:51:57;8.20;99.90
3312;DHT22;1668;49.648;8.570;2023-11-19T01:54:24;8.20;99.90
3312;DHT22;1668;49.648;8.570;2023-11-19T01:56:52;8.20;99.90
3312;DHT22;1668;49.648;8.570;2023-11-19T01:59:22;8.20;99.90
3312;DHT22;1668;49.648;8.570;2023-11-19T02:01:52;8.30;99.90
3312;DHT22;1668;49.648;8.570;2023-11-19T02:04:21;8.30;99.90
3312;DHT22;1668;49.648;8.570;2023-11-19T02:06:51;8.30;99.90
3312;DHT22;1668;49.648;8.570;2023-11-19T02:09:20;8.30;99.90
3312;DHT22;1668;49.648;8.570;2023-11-19T02:11:47;8.30;99.90
3312;DHT22;1668;49.648;8.570;2023-11-19T02:14:17;8.30;99.90
3312;DHT22;1668;49.648;8.570;2023-11-19T02:16:45;8.40;99.90
3312;DHT22;1668;49.648;8.570;2023-11-19T02:19:12;8.40;99.90
3312;DHT22;1668;49.648;8.570;2023-11-19T02:21:39;8.40;99.90
3312;DHT22;1668;49.648;8.570;2023-11-19T02:24:12;8.40;99.90
3312;DHT22;1668;49.648;8.570;2023-11-19T02:26:46;8.40;99.90
3312;DHT22;1668;49.648;8.570;2023-11-19T02:29:15;8.40;99.90
3312;DHT22;1668;49.648;8.570;2023-11-19T02:31:42;8.50;99.90
3312;DHT22;1668;49.648;8.570;2023-11-19T02:34:10;8.50;99.90
3312;DHT22;1668;49.648;8.570;2023-11-19T02:36:38;8.50;99.90
3312;DHT22;1668;49.648;8.570;2023-11-19T02:39:07;8.50;99.90
3312;DHT22;1668;49.648;8.570;2023-11-19T02:41:37;8.50;99.90
3312;DHT22;1668;49.648;8.570;2023-11-19T02:44:05;8.50;99.90
3312;DHT22;1668;49.648;8.570;2023-11-19T02:46:34;8.60;99.90
3312;DHT22;1668;49.648;8.570;2023-11-19T02:49:00;8.60;99.90
3312;DHT22;1668;49.648;8.570;2023-11-19T02:51:27;8.60;99.90
3312;DHT22;1668;49.648;8.570;2023-11-19T02:53:55;8.60;99.90
3312;DHT22;1668;49.648;8.570;2023-11-19T02:56:22;8.60;99.90
3312;DHT22;1668;49.648;8.570;2023-11-19T02:58:52;8.70;99.90
3312;DHT22;1668;49.648;8.570;2023-11-19T03:01:23;8.70;99.90
3312;DHT22;1668;49.648;8.570;2023-11-19T03:03:57;8.70;99.90
3312;DHT22;1668;49.648;8.570;2023-11-19T03:06:24;8.70;99.90
3312;DHT22;1668;49.648;8.570;2023-11-19T03:08:51;8.70;99.90
3312;DHT22;1668;49.648;8.570;2023-11-19T03:11:18;8.70;99.90
3312;DHT22;1668;49.648;8.570;2023-11-19T03:13:45;8.70;99.90
3312;DHT22;1668;49.648;8.570;2023-11-19T03:16:12;8.70;99.90
3312;DHT22;1668;49.648;8.570;2023-11-19T03:18:39;8.70;99.90
3312;DHT22;1668;49.648;8.570;2023-11-19T03:21:08;8.80;99.90
3312;DHT22;1668;49.648;8.570;2023-11-19T03:23:35;8.80;99.90
3312;DHT22;1668;49.648;8.570;2023-11-19T03:26:02;8.80;99.90
3312;DHT22;1668;49.648;8.570;2023-11-19T03:28:31;8.80;99.90
3312;DHT22;1668;49.648;8.570;2023-11-19T03:30:58;8.80;99.90
3312;DHT22;1668;49.648;8.570;2023-11-19T03:33:24;8.80;99.90
3312;DHT22;1668;49.648;8.570;2023-11-19T03:35:53;8.80;99.90
3312;DHT22;1668;49.648;8.570;2023-11-19T03:38:23;8.80;99.90
3312;DHT22;1668;49.648;8.570;2023-11-19T03:40:50;8.80;99.90
3312;DHT22;1668;49.648;8.570;2023-11-19T03:43:16;8.90;99.90
3312;DHT22;1668;49.648;8.570;2023-11-19T03:45:44;8.90;99.90
3312;DHT22;1668;49.648;8.570;2023-11-19T03:48:11;8.90;99.90
3312;DHT22;1668;49.648;8.570;2023-11-19T03:50:38;8.90;99.90
3312;DHT22;1668;49.648;8.570;2023-11-19T03:53:05;8.90;99.90
3312;DHT22;1668;49.648;8.570;2023-11-19T03:55:34;8.90;99.90
3312;DHT22;1668;49.648;8.570;2023-11-19T03:58:00;8.90;99.90
3312;DHT22;1668;49.648;8.570;2023-11-19T04:00:27;8.90;99.90
3312;DHT22;1668;49.648;8.570;2023-11-19T04:02:54;8.90;99.90
3312;DHT22;1668;49.648;8.570;2023-11-19T04:05:20;9.00;99.90
3312;DHT22;1668;49.648;8.570;2023-11-19T04:07:47;9.00;99.90
3312;DHT22;1668;49.648;8.570;2023-11-19T04:10:14;9.00;99.90
3312;DHT22;1668;49.648;8.570;2023-11-19T04:12:44;9.00;99.90
3312;DHT22;1668;49.648;8.570;2023-11-19T04:15:11;9.00;99.90
3312;DHT22;1668;49.648;8.570;2023-11-19T04:17:38;9.00;99.90
3312;DHT22;1668;49.648;8.570;2023-11-19T04:20:06;9.00;99.90
3312;DHT22;1668;49.648;8.570;2023-11-19T04:22:36;9.00;99.90
3312;DHT22;1668;49.648;8.570;2023-11-19T04:25:03;9.10;99.90
3312;DHT22;1668;49.648;8.570;2023-11-19T04:27:31;9.10;99.90
3312;DHT22;1668;49.648;8.570;2023-11-19T04:29:59;9.10;99.90
3312;DHT22;1668;49.648;8.570;2023-11-19T04:32:28;9.10;99.90
3312;DHT22;1668;49.648;8.570;2023-11-19T04:34:54;9.10;99.90
3312;DHT22;1668;49.648;8.570;2023-11-19T04:37:21;9.10;99.90
3312;DHT22;1668;49.648;8.570;2023-11-19T04:39:48;9.10;99.90
3312;DHT22;1668;49.648;8.570;2023-11-19T04:42:15;9.10;99.90
3312;DHT22;1668;49.648;8.570;2023-11-19T04:44:43;9.10;99.90
3312;DHT22;1668;49.648;8.570;2023-11-19T04:47:11;9.20;99.90
3312;DHT22;1668;49.648;8.570;2023-11-19T04:49:40;9.20;99.90
3312;DHT22;1668;49.648;8.570;2023-11-19T04:52:08;9.20;99.90
3312;DHT22;1668;49.648;8.570;2023-11-19T04:54:35;9.20;99.90
3312;DHT22;1668;49.648;8.570;2023-11-19T04:57:02;9.30;99.90
3312;DHT22;1668;49.648;8.570;2023-11-19T04:59:29;9.30;99.90
3312;DHT22;1668;49.648;8.570;2023-11-19T05:01:56;9.30;99.90
3312;DHT22;1668;49.648;8.570;2023-11-19T05:04:24;9.30;99.90
3312;DHT22;1668;49.648;8.570;2023-11-19T05:06:51;9.30;99.90
3312;DHT22;1668;49.648;8.570;2023-11-19T05:09:19;9.30;99.90
3312;DHT22;1668;49.648;8.570;2023-11-19T05:11:46;9.40;99.90
3312;DHT22;1668;49.648;8.570;2023-11-19T05:14:14;9.40;99.90
3312;DHT22;1668;49.648;8.570;2023-11-19T05:16:41;9.40;99.90
3312;DHT22;1668;49.648;8.570;2023-11-19T05:19:08;9.40;99.90
3312;DHT22;1668;49.648;8.570;2023-11-19T05:21:37;9.40;99.90
3312;DHT22;1668;49.648;8.570;2023-11-19T05:24:04;9.40;99.90
3312;DHT22;1668;49.648;8.570;2023-11-19T05:26:31;9.50;99.90
3312;DHT22;1668;49.648;8.570;2023-11-19T05:28:58;9.50;99.90
3312;DHT22;1668;49.648;8.570;2023-11-19T05:31:25;9.50;99.90
3312;DHT22;1668;49.648;8.570;2023-11-19T05:33:52;9.50;99.90
3312;DHT22;1668;49.648;8.570;2023-11-19T05:36:19;9.50;99.90
3312;DHT22;1668;49.648;8.570;2023-11-19T05:38:47;9.50;99.90
3312;DHT22;1668;49.648;8.570;2023-11-19T05:41:14;9.50;99.90
3312;DHT22;1668;49.648;8.570;2023-11-19T05:43:41;9.60;99.90
3312;DHT22;1668;49.648;8.570;2023-11-19T05:46:08;9.60;99.90
3312;DHT22;1668;49.648;8.570;2023-11-19T05:48:35;9.60;99.90
3312;DHT22;1668;49.648;8.570;2023-11-19T05:51:01;9.60;99.90
3312;DHT22;1668;49.648;8.570;2023-11-19T05:53:28;9.60;99.90
3312;DHT22;1668;49.648;8.570;2023-11-19T05:55:57;9.60;99.90
3312;DHT22;1668;49.648;8.570;2023-11-19T05:58:24;9.70;99.90
3312;DHT22;1668;49.648;8.570;2023-11-19T06:00:54;9.70;99.90
3312;DHT22;1668;49.648;8.570;2023-11-19T06:03:21;9.70;99.90
3312;DHT22;1668;49.648;8.570;2023-11-19T06:05:48;9.70;99.90
3312;DHT22;1668;49.648;8.570;2023-11-19T06:08:15;9.80;99.90
3312;DHT22;1668;49.648;8.570;2023-11-19T06:10:43;9.70;99.90
3312;DHT22;1668;49.648;8.570;2023-11-19T06:13:13;9.80;99.90
3312;DHT22;1668;49.648;8.570;2023-11-19T06:15:41;9.80;99.90
3312;DHT22;1668;49.648;8.570;2023-11-19T06:18:08;9.80;99.90
3312;DHT22;1668;49.648;8.570;2023-11-19T06:20:37;9.80;99.90
3312;DHT22;1668;49.648;8.570;2023-11-19T06:23:04;9.80;99.90
3312;DHT22;1668;49.648;8.570;2023-11-19T06:25:31;9.80;99.90
3312;DHT22;1668;49.648;8.570;2023-11-19T06:27:58;9.90;99.90
3312;DHT22;1668;49.648;8.570;2023-11-19T06:30:26;9.90;99.90
3312;DHT22;1668;49.648;8.570;2023-11-19T06:32:54;9.90;99.90
3312;DHT22;1668;49.648;8.570;2023-11-19T06:35:21;9.90;99.90
3312;DHT22;1668;49.648;8.570;2023-11-19T06:37:47;10.00;99.90
3312;DHT22;1668;49.648;8.570;2023-11-19T06:40:15;10.00;99.90
3312;DHT22;1668;49.648;8.570;2023-11-19T06:42:42;10.00;99.90
3312;DHT22;1668;49.648;8.570;2023-11-19T06:45:09;10.00;99.90
3312;DHT22;1668;49.648;8.570;2023-11-19T06:47:37;10.10;99.90
3312;DHT22;1668;49.648;8.570;2023-11-19T06:50:05;10.10;99.90
3312;DHT22;1668;49.648;8.570;2023-11-19T06:52:32;10.10;99.90
3312;DHT22;1668;49.648;8.570;2023-11-19T06:54:59;10.10;99.90
3312;DHT22;1668;49.648;8.570;2023-11-19T06:57:26;10.10;99.90
3312;DHT22;1668;49.648;8.570;2023-11-19T06:59:55;10.20;99.90
3312;DHT22;1668;49.648;8.570;2023-11-19T07:02:26;10.20;99.90
3312;DHT22;1668;49.648;8.570;2023-11-19T07:04:55;10.20;99.90
3312;DHT22;1668;49.648;8.570;2023-11-19T07:07:26;10.20;99.90
3312;DHT22;1668;49.648;8.570;2023-11-19T07:09:53;10.30;99.90
3312;DHT22;1668;49.648;8.570;2023-11-19T07:12:20;10.20;99.90
3312;DHT22;1668;49.648;8.570;2023-11-19T07:14:47;10.30;99.90
3312;DHT22;1668;49.648;8.570;2023-11-19T07:17:14;10.30;99.90
3312;DHT22;1668;49.648;8.570;2023-11-19T07:19:41;10.30;99.90
3312;DHT22;1668;49.648;8.570;2023-11-19T07:22:09;10.20;99.90
3312;DHT22;1668;49.648;8.570;2023-11-19T07:24:39;10.20;99.90
3312;DHT22;1668;49.648;8.570;2023-11-19T07:27:06;10.20;99.90
3312;DHT22;1668;49.648;8.570;2023-11-19T07:29:34;10.20;99.90
3312;DHT22;1668;49.648;8.570;2023-11-19T07:32:01;10.30;99.90
3312;DHT22;1668;49.648;8.570;2023-11-19T07:34:28;10.30;99.90
3312;DHT22;1668;49.648;8.570;2023-11-19T07:36:55;10.30;99.90
3312;DHT22;1668;49.648;8.570;2023-11-19T07:39:26;10.30;99.90
3312;DHT22;1668;49.648;8.570;2023-11-19T07:41:53;10.30;99.90
3312;DHT22;1668;49.648;8.570;2023-11-19T07:44:20;10.40;99.90
3312;DHT22;1668;49.648;8.570;2023-11-19T07:46:47;10.40;99.90
3312;DHT22;1668;49.648;8.570;2023-11-19T07:49:14;10.40;99.90
3312;DHT22;1668;49.648;8.570;2023-11-19T07:51:41;10.40;99.90
3312;DHT22;1668;49.648;8.570;2023-11-19T07:54:08;10.40;99.90
3312;DHT22;1668;49.648;8.570;2023-11-19T07:56:36;10.40;99.90
3312;DHT22;1668;49.648;8.570;2023-11-19T07:59:03;10.40;99.90
3312;DHT22;1668;49.648;8.570;2023-11-19T08:01:30;10.40;99.90
3312;DHT22;1668;49.648;8.570;2023-11-19T08:03:57;10.40;99.90
3312;DHT22;1668;49.648;8.570;2023-11-19T08:06:24;10.40;99.90
3312;DHT22;1668;49.648;8.570;2023-11-19T08:08:51;10.50;99.90
3312;DHT22;1668;49.648;8.570;2023-11-19T08:11:18;10.50;99.90
3312;DHT22;1668;49.648;8.570;2023-11-19T08:13:47;10.50;99.90
3312;DHT22;1668;49.648;8.570;2023-11-19T08:16:14;10.50;99.90
3312;DHT22;1668;49.648;8.570;2023-11-19T08:18:42;10.60;99.90
3312;DHT22;1668;49.648;8.570;2023-11-19T08:21:09;10.60;99.90
3312;DHT22;1668;49.648;8.570;2023-11-19T08:23:36;10.70;99.90
3312;DHT22;1668;49.648;8.570;2023-11-19T08:26:04;10.70;99.90
3312;DHT22;1668;49.648;8.570;2023-11-19T08:28:31;10.70;99.90
3312;DHT22;1668;49.648;8.570;2023-11-19T08:31:01;10.80;99.90
3312;DHT22;1668;49.648;8.570;2023-11-19T08:33:27;10.80;99.90
3312;DHT22;1668;49.648;8.570;2023-11-19T08:35:55;10.90;99.90
3312;DHT22;1668;49.648;8.570;2023-11-19T08:38:22;11.00;99.90
3312;DHT22;1668;49.648;8.570;2023-11-19T08:40:49;11.00;99.90
3312;DHT22;1668;49.648;8.570;2023-11-19T08:43:16;11.10;99.90
3312;DHT22;1668;49.648;8.570;2023-11-19T08:45:43;11.10;99.90
3312;DHT22;1668;49.648;8.570;2023-11-19T08:48:11;11.20;99.90
3312;DHT22;1668;49.648;8.570;2023-11-19T08:50:38;11.20;99.90
3312;DHT22;1668;49.648;8.570;2023-11-19T08:53:05;11.30;99.90
3312;DHT22;1668;49.648;8.570;2023-11-19T08:55:32;11.30;99.90
3312;DHT22;1668;49.648;8.570;2023-11-19T08:57:59;11.30;99.90
3312;DHT22;1668;49.648;8.570;2023-11-19T09:00:26;11.30;99.90
3312;DHT22;1668;49.648;8.570;2023-11-19T09:02:53;11.30;99.90
3312;DHT22;1668;49.648;8.570;2023-11-19T09:05:21;11.40;99.90
3312;DHT22;1668;49.648;8.570;2023-11-19T09:07:48;11.40;99.90
3312;DHT22;1668;49.648;8.570;2023-11-19T09:10:15;11.40;99.90
3312;DHT22;1668;49.648;8.570;2023-11-19T09:12:42;11.40;99.90
3312;DHT22;1668;49.648;8.570;2023-11-19T09:15:09;11.50;99.90
3312;DHT22;1668;49.648;8.570;2023-11-19T09:17:37;11.40;99.90
3312;DHT22;1668;49.648;8.570;2023-11-19T09:20:05;11.50;99.90
3312;DHT22;1668;49.648;8.570;2023-11-19T09:22:34;11.40;99.90
3312;DHT22;1668;49.648;8.570;2023-11-19T09:25:01;11.50;99.90
3312;DHT22;1668;49.648;8.570;2023-11-19T09:27:28;11.50;99.90
3312;DHT22;1668;49.648;8.570;2023-11-19T09:29:55;11.50;99.90
3312;DHT22;1668;49.648;8.570;2023-11-19T09:32:24;11.60;99.90
3312;DHT22;1668;49.648;8.570;2023-11-19T09:34:51;11.60;99.90
3312;DHT22;1668;49.648;8.570;2023-11-19T09:37:17;11.60;99.90
3312;DHT22;1668;49.648;8.570;2023-11-19T09:39:46;11.60;99.90
3312;DHT22;1668;49.648;8.570;2023-11-19T09:42:12;11.60;99.90
3312;DHT22;1668;49.648;8.570;2023-11-19T09:44:40;11.60;99.90
3312;DHT22;1668;49.648;8.570;2023-11-19T09:47:11;11.60;99.90
3312;DHT22;1668;49.648;8.570;2023-11-19T09:49:38;11.60;99.90
3312;DHT22;1668;49.648;8.570;2023-11-19T09:52:05;11.60;99.90
3312;DHT22;1668;49.648;8.570;2023-11-19T09:54:32;11.70;99.90
3312;DHT22;1668;49.648;8.570;2023-11-19T09:57:01;11.60;99.90
3312;DHT22;1668;49.648;8.570;2023-11-19T09:59:29;11.60;99.90
3312;DHT22;1668;49.648;8.570;2023-11-19T10:01:57;11.60;99.90
3312;DHT22;1668;49.648;8.570;2023-11-19T10:04:24;11.60;99.90
3312;DHT22;1668;49.648;8.570;2023-11-19T10:06:52;11.60;99.90
3312;DHT22;1668;49.648;8.570;2023-11-19T10:09:19;11.60;99.90
3312;DHT22;1668;49.648;8.570;2023-11-19T10:11:46;11.60;99.90
3312;DHT22;1668;49.648;8.570;2023-11-19T10:14:14;11.60;99.90
3312;DHT22;1668;49.648;8.570;2023-11-19T10:16:41;11.50;99.90
3312;DHT22;1668;49.648;8.570;2023-11-19T10:19:12;11.50;99.90
3312;DHT22;1668;49.648;8.570;2023-11-19T10:21:46;11.50;99.90
3312;DHT22;1668;49.648;8.570;2023-11-19T10:24:12;11.60;99.90
3312;DHT22;1668;49.648;8.570;2023-11-19T10:26:40;11.60;99.90
3312;DHT22;1668;49.648;8.570;2023-11-19T10:29:08;11.60;99.90
3312;DHT22;1668;49.648;8.570;2023-11-19T10:31:36;11.60;99.90
3312;DHT22;1668;49.648;8.570;2023-11-19T10:34:03;11.60;99.90
3312;DHT22;1668;49.648;8.570;2023-11-19T10:36:40;11.60;99.90
3312;DHT22;1668;49.648;8.570;2023-11-19T10:39:07;11.60;99.90
3312;DHT22;1668;49.648;8.570;2023-11-19T10:41:35;11.60;99.90
3312;DHT22;1668;49.648;8.570;2023-11-19T10:44:05;11.60;99.90
3312;DHT22;1668;49.648;8.570;2023-11-19T10:46:40;11.60;99.90
3312;DHT22;1668;49.648;8.570;2023-11-19T10:49:07;11.70;99.90
3312;DHT22;1668;49.648;8.570;2023-11-19T10:51:34;11.90;99.90
3312;DHT22;1668;49.648;8.570;2023-11-19T10:54:04;11.90;99.90
3312;DHT22;1668;49.648;8.570;2023-11-19T10:56:32;12.00;99.90
3312;DHT22;1668;49.648;8.570;2023-11-19T10:59:00;12.00;99.90
3312;DHT22;1668;49.648;8.570;2023-11-19T11:01:34;12.10;99.90
3312;DHT22;1668;49.648;8.570;2023-11-19T11:04:13;12.10;99.90
3312;DHT22;1668;49.648;8.570;2023-11-19T11:06:40;12.20;99.90
3312;DHT22;1668;49.648;8.570;2023-11-19T11:09:09;12.10;99.90
3312;DHT22;1668;49.648;8.570;2023-11-19T11:11:39;12.10;99.90
3312;DHT22;1668;49.648;8.570;2023-11-19T11:14:09;12.10;99.90
3312;DHT22;1668;49.648;8.570;2023-11-19T11:16:42;12.20;99.90
3312;DHT22;1668;49.648;8.570;2023-11-19T11:19:11;12.10;99.90
3312;DHT22;1668;49.648;8.570;2023-11-19T11:21:40;12.10;99.90
3312;DHT22;1668;49.648;8.570;2023-11-19T11:24:45;12.20;99.90
3312;DHT22;1668;49.648;8.570;2023-11-19T11:27:34;12.10;99.90
3312;DHT22;1668;49.648;8.570;2023-11-19T11:30:14;12.20;99.90
3312;DHT22;1668;49.648;8.570;2023-11-19T11:32:50;12.20;99.90
3312;DHT22;1668;49.648;8.570;2023-11-19T11:35:30;12.20;99.90
3312;DHT22;1668;49.648;8.570;2023-11-19T11:38:03;12.20;99.90
3312;DHT22;1668;49.648;8.570;2023-11-19T11:40:30;12.20;99.90
3312;DHT22;1668;49.648;8.570;2023-11-19T11:42:57;12.30;99.90
3312;DHT22;1668;49.648;8.570;2023-11-19T11:45:39;12.30;99.90
3312;DHT22;1668;49.648;8.570;2023-11-19T11:48:10;12.40;99.90
3312;DHT22;1668;49.648;8.570;2023-11-19T11:50:48;12.60;99.90
3312;DHT22;1668;49.648;8.570;2023-11-19T11:53:19;12.60;99.90
3312;DHT22;1668;49.648;8.570;2023-11-19T11:55:56;12.70;99.90
3312;DHT22;1668;49.648;8.570;2023-11-19T11:58:30;12.70;99.90
3312;DHT22;1668;49.648;8.570;2023-11-19T12:00:58;12.70;99.90
3312;DHT22;1668;49.648;8.570;2023-11-19T12:03:28;12.70;99.90
3312;DHT22;1668;49.648;8.570;2023-11-19T12:05:57;12.80;99.90
3312;DHT22;1668;49.648;8.570;2023-11-19T12:08:26;12.90;99.90
3312;DHT22;1668;49.648;8.570;2023-11-19T12:10:54;13.00;99.90
3312;DHT22;1668;49.648;8.570;2023-11-19T12:13:23;13.10;99.90
3312;DHT22;1668;49.648;8.570;2023-11-19T12:16:10;13.10;99.90
3312;DHT22;1668;49.648;8.570;2023-11-19T12:18:39;13.10;99.90
3312;DHT22;1668;49.648;8.570;2023-11-19T12:21:08;13.10;99.90
3312;DHT22;1668;49.648;8.570;2023-11-19T12:23:45;13.20;99.90
3312;DHT22;1668;49.648;8.570;2023-11-19T12:26:33;13.20;99.90
3312;DHT22;1668;49.648;8.570;2023-11-19T12:29:01;13.20;99.90
3312;DHT22;1668;49.648;8.570;2023-11-19T12:31:29;13.30;99.90
3312;DHT22;1668;49.648;8.570;2023-11-19T12:33:57;13.30;99.90
3312;DHT22;1668;49.648;8.570;2023-11-19T12:36:25;13.30;99.90
3312;DHT22;1668;49.648;8.570;2023-11-19T12:38:52;13.30;99.90
3312;DHT22;1668;49.648;8.570;2023-11-19T12:41:19;13.20;99.90
3312;DHT22;1668;49.648;8.570;2023-11-19T12:43:49;13.30;99.90
3312;DHT22;1668;49.648;8.570;2023-11-19T12:46:20;13.30;99.90
3312;DHT22;1668;49.648;8.570;2023-11-19T12:48:47;13.40;99.90
3312;DHT22;1668;49.648;8.570;2023-11-19T12:51:14;13.50;99.90
3312;DHT22;1668;49.648;8.570;2023-11-19T12:53:50;13.70;99.90
3312;DHT22;1668;49.648;8.570;2023-11-19T12:56:19;13.90;1.00
3312;DHT22;1668;49.648;8.570;2023-11-19T12:58:46;14.00;1.00
3312;DHT22;1668;49.648;8.570;2023-11-19T13:01:16;14.00;1.00
3312;DHT22;1668;49.648;8.570;2023-11-19T13:03:44;14.10;1.00
3312;DHT22;1668;49.648;8.570;2023-11-19T13:06:13;14.30;1.00
3312;DHT22;1668;49.648;8.570;2023-11-19T13:08:42;14.40;1.00
3312;DHT22;1668;49.648;8.570;2023-11-19T13:11:12;14.50;1.00
3312;DHT22;1668;49.648;8.570;2023-11-19T13:13:55;14.60;1.00
3312;DHT22;1668;49.648;8.570;2023-11-19T13:16:22;14.70;99.90
3312;DHT22;1668;49.648;8.570;2023-11-19T13:18:49;14.70;99.90
3312;DHT22;1668;49.648;8.570;2023-11-19T13:21:17;14.60;99.90
3312;DHT22;1668;49.648;8.570;2023-11-19T13:23:44;14.70;99.90
3312;DHT22;1668;49.648;8.570;2023-11-19T13:26:12;14.60;50.10
3312;DHT22;1668;49.648;8.570;2023-11-19T13:28:39;14.60;99.90
3312;DHT22;1668;49.648;8.570;2023-11-19T13:31:06;14.60;99.90
3312;DHT22;1668;49.648;8.570;2023-11-19T13:33:33;14.50;99.90
3312;DHT22;1668;49.648;8.570;2023-11-19T13:36:01;14.50;99.90
3312;DHT22;1668;49.648;8.570;2023-11-19T13:38:31;14.50;99.90
3312;DHT22;1668;49.648;8.570;2023-11-19T13:40:58;14.50;99.90
3312;DHT22;1668;49.648;8.570;2023-11-19T13:43:27;14.50;1.00
3312;DHT22;1668;49.648;8.570;2023-11-19T13:45:54;14.50;1.00
3312;DHT22;1668;49.648;8.570;2023-11-19T13:48:21;14.50;96.90
3312;DHT22;1668;49.648;8.570;2023-11-19T13:50:48;14.40;99.90
3312;DHT22;1668;49.648;8.570;2023-11-19T13:53:15;14.30;99.90
3312;DHT22;1668;49.648;8.570;2023-11-19T13:55:42;14.30;1.00
3312;DHT22;1668;49.648;8.570;2023-11-19T13:58:09;14.30;99.90
3312;DHT22;1668;49.648;8.570;2023-11-19T14:00:38;14.30;99.90
3312;DHT22;1668;49.648;8.570;2023-11-19T14:03:07;14.30;1.00
3312;DHT22;1668;49.648;8.570;2023-11-19T14:05:35;14.20;1.00
3312;DHT22;1668;49.648;8.570;2023-11-19T14:08:02;14.30;1.00
3312;DHT22;1668;49.648;8.570;2023-11-19T14:10:29;14.30;99.90
3312;DHT22;1668;49.648;8.570;2023-11-19T14:12:56;14.30;1.00
3312;DHT22;1668;49.648;8.570;2023-11-19T14:15:24;14.20;99.90
3312;DHT22;1668;49.648;8.570;2023-11-19T14:17:52;14.10;1.00
3312;DHT22;1668;49.648;8.570;2023-11-19T14:20:19;14.10;1.00
3312;DHT22;1668;49.648;8.570;2023-11-19T14:22:46;14.10;99.90
3312;DHT22;1668;49.648;8.570;2023-11-19T14:25:14;14.00;99.90
3312;DHT22;1668;49.648;8.570;2023-11-19T14:27:43;14.00;99.90
3312;DHT22;1668;49.648;8.570;2023-11-19T14:30:12;13.90;99.90
3312;DHT22;1668;49.648;8.570;2023-11-19T14:32:41;13.80;99.90
3312;DHT22;1668;49.648;8.570;2023-11-19T14:35:10;13.80;99.90
3312;DHT22;1668;49.648;8.570;2023-11-19T14:37:37;13.90;97.20
3312;DHT22;1668;49.648;8.570;2023-11-19T14:40:05;13.90;99.90
3312;DHT22;1668;49.648;8.570;2023-11-19T14:42:34;13.80;99.90
3312;DHT22;1668;49.648;8.570;2023-11-19T14:45:02;13.80;99.90
3312;DHT22;1668;49.648;8.570;2023-11-19T14:47:30;13.70;99.90
3312;DHT22;1668;49.648;8.570;2023-11-19T14:49:57;13.70;99.90
3312;DHT22;1668;49.648;8.570;2023-11-19T14:52:25;13.70;99.90
3312;DHT22;1668;49.648;8.570;2023-11-19T14:54:52;13.70;1.00
3312;DHT22;1668;49.648;8.570;2023-11-19T14:57:19;13.60;99.90
3312;DHT22;1668;49.648;8.570;2023-11-19T14:59:46;13.60;99.90
3312;DHT22;1668;49.648;8.570;2023-11-19T15:02:13;13.60;99.90
3312;DHT22;1668;49.648;8.570;2023-11-19T15:04:40;13.60;1.00
3312;DHT22;1668;49.648;8.570;2023-11-19T15:07:07;13.60;99.90
3312;DHT22;1668;49.648;8.570;2023-11-19T15:09:35;13.60;1.00
3312;DHT22;1668;49.648;8.570;2023-11-19T15:12:02;13.50;1.00
3312;DHT22;1668;49.648;8.570;2023-11-19T15:14:29;13.50;1.00
3312;DHT22;1668;49.648;8.570;2023-11-19T15:16:56;13.50;1.00
3312;DHT22;1668;49.648;8.570;2023-11-19T15:19:23;13.50;1.00
3312;DHT22;1668;49.648;8.570;2023-11-19T15:21:50;13.50;99.90
3312;DHT22;1668;49.648;8.570;2023-11-19T15:24:17;13.40;99.90
3312;DHT22;1668;49.648;8.570;2023-11-19T15:26:45;13.50;99.90
3312;DHT22;1668;49.648;8.570;2023-11-19T15:29:12;13.40;99.90
3312;DHT22;1668;49.648;8.570;2023-11-19T15:31:39;13.40;1.00
3312;DHT22;1668;49.648;8.570;2023-11-19T15:34:06;13.40;1.00
3312;DHT22;1668;49.648;8.570;2023-11-19T15:36:33;13.30;1.00
3312;DHT22;1668;49.648;8.570;2023-11-19T15:39:01;13.30;65.30
3312;DHT22;1668;49.648;8.570;2023-11-19T15:41:28;13.30;99.90
3312;DHT22;1668;49.648;8.570;2023-11-19T15:43:57;13.20;99.90
3312;DHT22;1668;49.648;8.570;2023-11-19T15:46:24;13.20;99.90
3312;DHT22;1668;49.648;8.570;2023-11-19T15:48:51;13.20;99.90
3312;DHT22;1668;49.648;8.570;2023-11-19T15:51:17;13.20;99.90
3312;DHT22;1668;49.648;8.570;2023-11-19T15:53:44;13.20;1.00
3312;DHT22;1668;49.648;8.570;2023-11-19T15:56:11;13.20;1.00
3312;DHT22;1668;49.648;8.570;2023-11-19T15:58:38;13.20;99.90
3312;DHT22;1668;49.648;8.570;2023-11-19T16:01:07;13.20;1.00
3312;DHT22;1668;49.648;8.570;2023-11-19T16:03:34;13.10;1.00
3312;DHT22;1668;49.648;8.570;2023-11-19T16:06:01;13.10;99.90
3312;DHT22;1668;49.648;8.570;2023-11-19T16:08:29;13.10;99.90
3312;DHT22;1668;49.648;8.570;2023-11-19T16:10:56;13.10;99.90
3312;DHT22;1668;49.648;8.570;2023-11-19T16:13:23;13.10;99.90
3312;DHT22;1668;49.648;8.570;2023-11-19T16:15:50;13.10;1.00